createdAt,value
2019-01-12T00:01:18.637Z,100126.52
2019-01-12T00:03:49.228Z,100113.60
2019-01-12T00:06:19.678Z,100123.27
2019-01-12T00:08:50.189Z,100120.36
2019-01-12T00:11:20.659Z,100124.82
2019-01-12T00:13:51.134Z,100122.53
2019-01-12T00:16:21.614Z,100126.03
2019-01-12T00:18:52.067Z,100121.91
2019-01-12T00:21:22.578Z,100118.44
2019-01-12T00:23:54.300Z,100107.59
2019-01-12T00:26:25.062Z,100118.20
2019-01-12T00:28:55.839Z,100123.02
2019-01-12T00:31:26.326Z,100113.01
2019-01-12T00:33:57.131Z,100116.60
2019-01-12T00:36:27.743Z,100106.50
2019-01-12T00:38:58.187Z,100109.75
2019-01-12T00:41:28.670Z,100111.55
2019-01-12T00:43:59.430Z,100113.48
2019-01-12T00:46:29.923Z,100118.54
2019-01-12T00:49:00.651Z,100113.01
2019-01-12T00:51:31.492Z,100114.45
2019-01-12T00:54:01.960Z,100125.54
2019-01-12T00:56:32.403Z,100120.70
2019-01-12T00:59:02.883Z,100108.41
2019-01-12T01:01:33.333Z,100115.28
2019-01-12T01:04:04.083Z,100108.41
2019-01-12T01:06:34.557Z,100116.84
2019-01-12T01:09:08.991Z,100112.27
2019-01-12T01:11:39.475Z,100111.77
2019-01-12T01:14:09.918Z,100111.41
2019-01-12T01:16:40.694Z,100110.94
2019-01-12T01:19:11.185Z,100109.01
2019-01-12T01:21:41.629Z,100102.25
2019-01-12T01:24:12.137Z,100096.95
2019-01-12T01:26:42.581Z,100093.69
2019-01-12T01:29:13.322Z,100102.73
2019-01-12T01:31:44.091Z,100104.44
2019-01-12T01:34:14.719Z,100104.17
2019-01-12T01:36:45.492Z,100120.46
2019-01-12T01:39:15.937Z,100113.72
2019-01-12T01:41:46.388Z,100121.16
2019-01-12T01:44:16.864Z,100113.25
2019-01-12T01:46:47.316Z,100124.56
2019-01-12T01:49:18.092Z,100122.03
2019-01-12T01:51:48.532Z,100122.30
2019-01-12T01:54:18.986Z,100125.41
2019-01-12T01:56:49.761Z,100118.42
2019-01-12T01:59:20.209Z,100114.55
2019-01-12T02:01:50.680Z,100119.03
2019-01-12T02:04:21.426Z,100115.28
2019-01-12T02:06:52.230Z,100127.09
2019-01-12T02:09:22.952Z,100123.11
2019-01-12T02:11:53.391Z,100125.04
2019-01-12T02:14:24.652Z,100120.59
2019-01-12T02:16:55.115Z,100123.58
2019-01-12T02:19:25.603Z,100120.35
2019-01-12T02:21:56.059Z,100118.66
2019-01-12T02:24:26.506Z,100119.86
2019-01-12T02:26:56.978Z,100116.12
2019-01-12T02:29:27.422Z,100118.64
2019-01-12T02:31:57.895Z,100111.87
2019-01-12T02:34:28.336Z,100112.13
2019-01-12T02:36:59.133Z,100114.89
2019-01-12T02:39:30.066Z,100116.22
2019-01-12T02:42:00.892Z,100110.35
2019-01-12T02:44:31.373Z,100106.94
2019-01-12T02:47:01.813Z,100105.05
2019-01-12T02:49:32.308Z,100108.03
2019-01-12T02:52:03.061Z,100105.97
2019-01-12T02:54:33.511Z,100105.11
2019-01-12T02:57:03.983Z,100108.98
2019-01-12T02:59:34.792Z,100104.15
2019-01-12T03:02:05.609Z,100112.38
2019-01-12T03:04:36.052Z,100104.77
2019-01-12T03:07:06.621Z,100107.91
2019-01-12T03:09:37.088Z,100104.55
2019-01-12T03:12:08.128Z,100105.37
2019-01-12T03:14:38.624Z,100105.87
2019-01-12T03:17:09.093Z,100105.13
2019-01-12T03:19:39.530Z,100104.53
2019-01-12T03:22:10.071Z,100111.05
2019-01-12T03:24:40.526Z,100094.91
2019-01-12T03:27:11.002Z,100101.88
2019-01-12T03:29:42.024Z,100099.24
2019-01-12T03:32:12.475Z,100098.73
2019-01-12T03:34:42.939Z,100095.48
2019-01-12T03:37:13.376Z,100081.52
2019-01-12T03:39:43.869Z,100085.25
2019-01-12T03:42:14.414Z,100084.76
2019-01-12T03:44:44.848Z,100080.30
2019-01-12T03:47:15.317Z,100076.48
2019-01-12T03:49:45.903Z,100067.45
2019-01-12T03:52:16.382Z,100071.89
2019-01-12T03:54:47.116Z,100073.22
2019-01-12T03:57:17.706Z,100072.62
2019-01-12T03:59:48.745Z,100076.48
2019-01-12T04:02:19.189Z,100068.64
2019-01-12T04:04:49.966Z,100067.31
2019-01-12T04:07:20.405Z,100060.34
2019-01-12T04:09:50.844Z,100060.68
2019-01-12T04:12:21.314Z,100054.41
2019-01-12T04:14:52.048Z,100057.67
2019-01-12T04:17:22.516Z,100054.28
2019-01-12T04:19:53.000Z,100054.19
2019-01-12T04:22:23.446Z,100056.32
2019-01-12T04:24:53.910Z,100052.95
2019-01-12T04:27:24.392Z,100053.80
2019-01-12T04:29:54.828Z,100051.73
2019-01-12T04:32:25.538Z,100056.22
2019-01-12T04:34:56.016Z,100053.20
2019-01-12T04:37:26.443Z,100045.13
2019-01-12T04:39:56.882Z,100044.02
2019-01-12T04:42:27.369Z,100042.69
2019-01-12T04:44:57.828Z,100046.10
2019-01-12T04:47:28.263Z,100043.80
2019-01-12T04:49:58.792Z,100037.17
2019-01-12T04:52:29.280Z,100034.67
2019-01-12T04:54:59.718Z,100028.77
2019-01-12T04:57:30.201Z,100032.27
2019-01-12T05:00:00.682Z,100030.45
2019-01-12T05:02:31.100Z,100025.16
2019-01-12T05:05:01.593Z,100025.39
2019-01-12T05:07:32.034Z,100020.94
2019-01-12T05:10:02.483Z,100014.52
2019-01-12T05:12:33.267Z,100008.48
2019-01-12T05:15:04.173Z,100011.38
2019-01-12T05:17:34.642Z,100000.42
2019-01-12T05:20:07.152Z,100003.65
2019-01-12T05:22:37.909Z,100008.84
2019-01-12T05:25:08.564Z,100004.64
2019-01-12T05:27:39.056Z,100009.84
2019-01-12T05:30:12.213Z,100009.71
2019-01-12T05:32:42.826Z,100011.97
2019-01-12T05:35:13.785Z,100016.67
2019-01-12T05:37:44.510Z,100011.87
2019-01-12T05:40:15.208Z,100010.19
2019-01-12T05:42:45.648Z,100008.84
2019-01-12T05:45:16.193Z,100017.17
2019-01-12T05:47:46.674Z,100008.84
2019-01-12T05:50:17.115Z,100008.84
2019-01-12T05:52:47.606Z,100012.83
2019-01-12T05:55:18.363Z,100019.00
2019-01-12T05:57:48.807Z,100012.23
2019-01-12T06:00:21.331Z,100011.61
2019-01-12T06:02:52.111Z,100010.28
2019-01-12T06:05:22.611Z,100013.09
2019-01-12T06:07:53.064Z,100011.04
2019-01-12T06:10:23.499Z,100015.01
2019-01-12T06:12:53.965Z,100018.13
2019-01-12T06:15:24.451Z,100023.20
2019-01-12T06:17:55.234Z,100019.00
2019-01-12T06:20:25.679Z,100017.66
2019-01-12T06:22:56.122Z,100018.28
2019-01-12T06:25:26.596Z,100016.23
2019-01-12T06:27:57.044Z,100020.70
2019-01-12T06:30:28.126Z,100014.67
2019-01-12T06:32:58.941Z,100015.73
2019-01-12T06:35:29.418Z,100016.23
2019-01-12T06:37:59.845Z,100019.48
2019-01-12T06:40:30.286Z,100012.16
2019-01-12T06:43:00.775Z,100013.36
2019-01-12T06:45:31.213Z,100012.53
2019-01-12T06:48:01.972Z,100019.14
2019-01-12T06:50:32.753Z,100016.98
2019-01-12T06:53:03.197Z,100023.12
2019-01-12T06:55:33.856Z,100022.03
2019-01-12T06:58:04.324Z,100018.52
2019-01-12T07:00:35.142Z,100017.68
2019-01-12T07:03:06.016Z,100018.05
2019-01-12T07:05:36.454Z,100012.98
2019-01-12T07:08:06.949Z,100013.58
2019-01-12T07:10:37.384Z,100013.34
2019-01-12T07:13:07.823Z,100012.02
2019-01-12T07:15:39.089Z,100013.83
2019-01-12T07:18:09.542Z,100025.05
2019-01-12T07:20:40.319Z,100019.50
2019-01-12T07:23:10.794Z,100011.54
2019-01-12T07:25:41.229Z,100007.56
2019-01-12T07:28:11.700Z,100014.92
2019-01-12T07:30:42.142Z,100006.58
2019-01-12T07:33:12.608Z,99999.38
2019-01-12T07:35:43.045Z,100002.88
2019-01-12T07:38:13.545Z,99993.84
2019-01-12T07:40:43.973Z,99996.48
2019-01-12T07:43:14.429Z,99991.06
2019-01-12T07:45:45.204Z,99999.73
2019-01-12T07:48:15.634Z,99992.87
2019-01-12T07:50:46.115Z,99992.14
2019-01-12T07:53:16.544Z,99995.99
2019-01-12T07:55:46.981Z,99985.02
2019-01-12T07:58:17.454Z,99976.97
2019-01-12T08:00:47.884Z,99982.27
2019-01-12T08:03:18.363Z,99980.21
2019-01-12T08:05:48.797Z,99980.95
2019-01-12T08:08:19.234Z,99979.13
2019-01-12T08:10:49.693Z,99972.00
2019-01-12T08:13:20.430Z,99968.88
2019-01-12T08:15:50.965Z,99967.19
2019-01-12T08:18:21.584Z,99965.60
2019-01-12T08:20:52.584Z,99967.91
2019-01-12T08:23:23.051Z,99971.78
2019-01-12T08:25:53.663Z,99969.48
2019-01-12T08:28:24.159Z,99967.45
2019-01-12T08:30:54.599Z,99953.95
2019-01-12T08:33:25.123Z,99953.38
2019-01-12T08:35:55.894Z,99946.64
2019-01-12T08:38:26.345Z,99947.97
2019-01-12T08:40:56.822Z,99945.09
2019-01-12T08:43:27.627Z,99948.56
2019-01-12T08:45:58.339Z,99947.11
2019-01-12T08:48:28.785Z,99939.42
2019-01-12T08:50:59.220Z,99931.70
2019-01-12T08:53:29.987Z,99929.75
2019-01-12T08:56:00.411Z,99928.92
2019-01-12T08:58:30.846Z,99923.98
2019-01-12T09:01:01.373Z,99920.75
2019-01-12T09:03:31.867Z,99917.00
2019-01-12T09:06:02.589Z,99916.55
2019-01-12T09:08:33.012Z,99923.06
2019-01-12T09:11:03.479Z,99911.97
2019-01-12T09:13:33.952Z,99912.45
2019-01-12T09:16:04.471Z,99912.69
2019-01-12T09:18:35.263Z,99899.67
2019-01-12T09:21:05.694Z,99900.53
2019-01-12T09:23:36.128Z,99898.33
2019-01-12T09:26:06.608Z,99892.69
2019-01-12T09:28:37.058Z,99889.56
2019-01-12T09:31:07.535Z,99889.94
2019-01-12T09:33:37.992Z,99886.30
2019-01-12T09:36:08.431Z,99879.44
2019-01-12T09:38:39.895Z,99883.05
2019-01-12T09:41:10.345Z,99869.43
2019-01-12T09:43:41.121Z,99880.99
2019-01-12T09:46:11.856Z,99875.36
2019-01-12T09:48:42.354Z,99875.45
2019-01-12T09:51:13.254Z,99860.42
2019-01-12T09:53:43.723Z,99862.91
2019-01-12T09:56:14.227Z,99860.12
2019-01-12T09:58:44.659Z,99854.59
2019-01-12T10:01:15.100Z,99851.84
2019-01-12T10:03:45.566Z,99843.89
2019-01-12T10:06:16.310Z,99835.58
2019-01-12T10:08:46.752Z,99831.47
2019-01-12T10:11:17.520Z,99832.66
2019-01-12T10:13:48.218Z,99828.45
2019-01-12T10:16:18.682Z,99818.48
2019-01-12T10:18:49.506Z,99812.55
2019-01-12T10:21:20.228Z,99813.02
2019-01-12T10:23:50.669Z,99808.08
2019-01-12T10:26:21.632Z,99807.98
2019-01-12T10:28:52.093Z,99792.07
2019-01-12T10:31:22.590Z,99784.95
2019-01-12T10:33:53.030Z,99771.92
2019-01-12T10:36:23.483Z,99771.33
2019-01-12T10:38:53.952Z,99753.88
2019-01-12T10:41:24.759Z,99753.09
2019-01-12T10:43:55.653Z,99758.39
2019-01-12T10:46:26.101Z,99746.46
2019-01-12T10:48:56.834Z,99751.40
2019-01-12T10:51:27.310Z,99747.16
2019-01-12T10:53:57.811Z,99735.63
2019-01-12T10:56:28.329Z,99733.72
2019-01-12T10:58:58.768Z,99725.16
2019-01-12T11:01:29.557Z,99719.73
2019-01-12T11:04:00.054Z,99723.12
2019-01-12T11:06:30.521Z,99710.04
2019-01-12T11:09:01.324Z,99708.08
2019-01-12T11:11:32.082Z,99703.15
2019-01-12T11:14:02.862Z,99708.55
2019-01-12T11:16:33.366Z,99696.48
2019-01-12T11:19:03.891Z,99691.36
2019-01-12T11:21:34.376Z,99687.84
2019-01-12T11:24:05.245Z,99685.33
2019-01-12T11:26:35.711Z,99685.05
2019-01-12T11:29:06.196Z,99674.45
2019-01-12T11:31:36.648Z,99661.34
2019-01-12T11:34:07.142Z,99655.19
2019-01-12T11:36:37.583Z,99646.05
2019-01-12T11:39:08.591Z,99644.36
2019-01-12T11:41:39.064Z,99632.57
2019-01-12T11:44:09.508Z,99622.75
2019-01-12T11:46:40.009Z,99614.81
2019-01-12T11:49:10.471Z,99609.27
2019-01-12T11:51:40.936Z,99602.73
2019-01-12T11:54:11.414Z,99596.35
2019-01-12T11:56:42.185Z,99598.17
2019-01-12T11:59:12.857Z,99586.61
2019-01-12T12:01:43.314Z,99581.45
2019-01-12T12:04:13.872Z,99578.17
2019-01-12T12:06:44.344Z,99568.63
2019-01-12T12:09:14.837Z,99565.89
2019-01-12T12:11:45.621Z,99560.59
2019-01-12T12:14:16.393Z,99554.47
2019-01-12T12:16:46.885Z,99547.84
2019-01-12T12:19:17.373Z,99545.55
2019-01-12T12:21:48.093Z,99545.88
2019-01-12T12:24:18.900Z,99521.93
2019-01-12T12:26:49.639Z,99521.43
2019-01-12T12:29:20.151Z,99516.35
2019-01-12T12:31:50.722Z,99504.34
2019-01-12T12:34:21.181Z,99492.29
2019-01-12T12:36:52.158Z,99493.22
2019-01-12T12:39:22.604Z,99478.69
2019-01-12T12:41:53.333Z,99467.72
2019-01-12T12:44:24.177Z,99456.80
2019-01-12T12:46:54.648Z,99449.68
2019-01-12T12:49:25.453Z,99430.17
2019-01-12T12:51:55.901Z,99433.50
2019-01-12T12:54:26.813Z,99426.98
2019-01-12T12:56:57.307Z,99428.31
2019-01-12T12:59:27.756Z,99417.15
2019-01-12T13:01:58.201Z,99417.50
2019-01-12T13:04:28.723Z,99413.96
2019-01-12T13:06:59.173Z,99406.08
2019-01-12T13:09:29.932Z,99400.06
2019-01-12T13:12:00.424Z,99398.70
2019-01-12T13:14:30.873Z,99390.11
2019-01-12T13:17:01.346Z,99399.45
2019-01-12T13:19:32.036Z,99391.15
2019-01-12T13:22:04.129Z,99380.77
2019-01-12T13:24:34.571Z,99384.59
2019-01-12T13:27:05.174Z,99382.30
2019-01-12T13:29:35.627Z,99378.94
2019-01-12T13:32:06.177Z,99366.12
2019-01-12T13:34:36.967Z,99358.09
2019-01-12T13:37:07.520Z,99359.06
2019-01-12T13:39:37.959Z,99355.73
2019-01-12T13:42:08.460Z,99349.60
2019-01-12T13:44:38.908Z,99338.50
2019-01-12T13:47:09.713Z,99344.16
2019-01-12T13:49:40.220Z,99328.88
2019-01-12T13:52:10.667Z,99330.20
2019-01-12T13:54:41.478Z,99324.28
2019-01-12T13:57:13.505Z,99328.05
2019-01-12T13:59:44.063Z,99331.37
2019-01-12T14:02:14.724Z,99327.35
2019-01-12T14:04:45.249Z,99324.98
2019-01-12T14:07:15.699Z,99319.17
2019-01-12T14:09:46.144Z,99317.23
2019-01-12T14:12:16.597Z,99318.41
2019-01-12T14:14:47.036Z,99298.33
2019-01-12T14:17:17.912Z,99297.15
2019-01-12T14:19:48.350Z,99297.36
2019-01-12T14:22:19.084Z,99297.00
2019-01-12T14:24:49.834Z,99285.84
2019-01-12T14:27:20.560Z,99277.18
2019-01-12T14:29:51.039Z,99283.61
2019-01-12T14:32:21.762Z,99267.84
2019-01-12T14:34:52.196Z,99266.58
2019-01-12T14:37:23.489Z,99267.96
2019-01-12T14:39:54.224Z,99270.26
2019-01-12T14:42:24.701Z,99262.86
2019-01-12T14:44:55.803Z,99268.02
2019-01-12T14:47:26.236Z,99263.72
2019-01-12T14:49:56.719Z,99267.81
2019-01-12T14:52:27.161Z,99268.93
2019-01-12T14:54:57.948Z,99268.61
2019-01-12T14:57:28.375Z,99272.80
2019-01-12T14:59:58.842Z,99254.03
2019-01-12T15:02:29.637Z,99256.95
2019-01-12T15:05:00.375Z,99251.70
2019-01-12T15:07:30.845Z,99252.70
2019-01-12T15:10:01.279Z,99249.05
2019-01-12T15:12:31.711Z,99252.11
2019-01-12T15:15:02.169Z,99243.89
2019-01-12T15:17:32.625Z,99248.02
2019-01-12T15:20:03.102Z,99233.91
2019-01-12T15:22:33.544Z,99232.84
2019-01-12T15:25:04.292Z,99232.48
2019-01-12T15:27:34.744Z,99235.99
2019-01-12T15:30:06.880Z,99240.17
2019-01-12T15:32:37.379Z,99236.61
2019-01-12T15:35:08.025Z,99237.73
2019-01-12T15:37:38.457Z,99227.02
2019-01-12T15:40:10.578Z,99231.56
2019-01-12T15:42:41.005Z,99222.42
2019-01-12T15:45:14.245Z,99227.02
2019-01-12T15:47:44.695Z,99224.42
2019-01-12T15:50:17.486Z,99221.22
2019-01-12T15:52:48.240Z,99218.34
2019-01-12T15:55:18.672Z,99215.84
2019-01-12T15:57:49.141Z,99203.20
2019-01-12T16:00:21.566Z,99204.58
2019-01-12T16:02:52.305Z,99203.95
2019-01-12T16:05:23.225Z,99193.70
2019-01-12T16:07:53.656Z,99194.88
2019-01-12T16:10:24.212Z,99193.20
2019-01-12T16:12:54.750Z,99192.70
2019-01-12T16:15:27.064Z,99182.09
2019-01-12T16:17:58.651Z,99180.29
2019-01-12T16:20:32.358Z,99191.05
2019-01-12T16:23:03.188Z,99182.44
2019-01-12T16:25:33.909Z,99193.50
2019-01-12T16:28:04.441Z,99191.05
2019-01-12T16:30:34.907Z,99184.42
2019-01-12T16:33:05.539Z,99184.22
2019-01-12T16:35:36.030Z,99176.11
2019-01-12T16:38:06.806Z,99173.50
2019-01-12T16:40:37.550Z,99173.86
2019-01-12T16:43:08.379Z,99177.03
2019-01-12T16:45:39.198Z,99167.27
2019-01-12T16:48:09.722Z,99171.40
2019-01-12T16:50:40.459Z,99170.75
2019-01-12T16:53:10.906Z,99167.27
2019-01-12T16:55:41.853Z,99169.42
2019-01-12T16:58:12.289Z,99165.80
2019-01-12T17:00:42.810Z,99162.63
2019-01-12T17:03:13.549Z,99164.62
2019-01-12T17:05:43.996Z,99167.07
2019-01-12T17:08:14.494Z,99158.14
2019-01-12T17:10:46.238Z,99168.75
2019-01-12T17:13:16.729Z,99164.57
2019-01-12T17:15:47.202Z,99168.45
2019-01-12T17:18:17.932Z,99175.38
2019-01-12T17:20:48.414Z,99173.35
2019-01-12T17:23:19.977Z,99178.95
2019-01-12T17:25:50.463Z,99184.20
2019-01-12T17:28:21.190Z,99190.27
2019-01-12T17:30:51.943Z,99197.83
2019-01-12T17:33:22.401Z,99188.69
2019-01-12T17:35:52.838Z,99187.02
2019-01-12T17:38:23.311Z,99186.66
2019-01-12T17:40:53.751Z,99186.27
2019-01-12T17:43:24.200Z,99191.97
2019-01-12T17:45:54.985Z,99179.83
2019-01-12T17:48:25.700Z,99178.03
2019-01-12T17:50:56.427Z,99169.02
2019-01-12T17:53:27.375Z,99177.13
2019-01-12T17:55:58.134Z,99178.45
2019-01-12T17:58:28.572Z,99180.56
2019-01-12T18:00:59.051Z,99177.59
2019-01-12T18:03:29.483Z,99179.53
2019-01-12T18:06:00.309Z,99181.59
2019-01-12T18:08:31.162Z,99180.81
2019-01-12T18:11:04.090Z,99178.06
2019-01-12T18:13:34.510Z,99167.00
2019-01-12T18:16:05.120Z,99154.92
2019-01-12T18:18:35.926Z,99161.84
2019-01-12T18:21:06.447Z,99161.50
2019-01-12T18:23:38.179Z,99154.87
2019-01-12T18:26:08.608Z,99158.58
2019-01-12T18:28:39.036Z,99157.72
2019-01-12T18:31:09.886Z,99151.24
2019-01-12T18:33:40.318Z,99152.56
2019-01-12T18:36:10.747Z,99156.24
2019-01-12T18:38:41.523Z,99157.77
2019-01-12T18:41:12.390Z,99151.99
2019-01-12T18:43:42.877Z,99150.81
2019-01-12T18:46:13.366Z,99153.13
2019-01-12T18:48:43.807Z,99155.22
2019-01-12T18:51:14.238Z,99153.07
2019-01-12T18:53:44.993Z,99148.94
2019-01-12T18:56:15.427Z,99146.14
2019-01-12T18:58:45.859Z,99152.41
2019-01-12T19:01:16.337Z,99149.77
2019-01-12T19:03:47.151Z,99137.88
2019-01-12T19:06:17.583Z,99137.68
2019-01-12T19:08:48.368Z,99136.23
2019-01-12T19:11:20.841Z,99125.37
2019-01-12T19:13:51.545Z,99130.69
2019-01-12T19:16:22.448Z,99134.58
2019-01-12T19:18:52.867Z,99130.95
2019-01-12T19:21:23.289Z,99134.00
2019-01-12T19:23:54.052Z,99128.66
2019-01-12T19:26:24.484Z,99139.81
2019-01-12T19:28:54.917Z,99133.80
2019-01-12T19:31:25.687Z,99128.70
2019-01-12T19:33:56.085Z,99132.87
2019-01-12T19:36:26.551Z,99126.16
2019-01-12T19:38:56.991Z,99124.57
2019-01-12T19:41:27.435Z,99121.72
2019-01-12T19:43:58.243Z,99120.90
2019-01-12T19:46:28.679Z,99118.59
2019-01-12T19:48:59.100Z,99113.53
2019-01-12T19:51:29.864Z,99118.30
2019-01-12T19:54:00.591Z,99111.52
2019-01-12T19:56:31.067Z,99117.52
2019-01-12T19:59:01.528Z,99115.02
2019-01-12T20:01:31.983Z,99107.53
2019-01-12T20:04:02.776Z,99113.08
2019-01-12T20:06:33.212Z,99106.45
2019-01-12T20:09:06.796Z,99103.17
2019-01-12T20:11:37.231Z,99101.30
2019-01-12T20:14:08.541Z,99095.21
2019-01-12T20:16:39.331Z,99092.71
2019-01-12T20:19:10.323Z,99092.71
2019-01-12T20:21:40.799Z,99092.36
2019-01-12T20:24:11.519Z,99086.47
2019-01-12T20:26:42.012Z,99088.63
2019-01-12T20:29:12.553Z,99088.63
2019-01-12T20:32:22.708Z,99086.79
2019-01-12T20:35:20.759Z,99084.64
2019-01-12T20:38:27.479Z,99080.81
2019-01-12T20:41:36.213Z,99078.84
2019-01-12T20:44:26.721Z,99083.66
2019-01-12T20:47:34.628Z,99075.66
2019-01-12T20:50:36.282Z,99079.77
2019-01-12T20:53:39.381Z,99082.50
2019-01-12T20:56:47.780Z,99086.47
2019-01-12T20:59:38.041Z,99081.68
2019-01-12T21:02:54.574Z,99083.66
2019-01-12T21:05:58.792Z,99078.52
2019-01-12T21:08:46.549Z,99083.31
2019-01-12T21:12:00.692Z,99072.20
2019-01-12T21:14:41.887Z,99082.50
2019-01-12T21:17:14.707Z,99078.44
2019-01-12T21:19:48.289Z,99078.64
2019-01-12T21:22:23.151Z,99075.79
2019-01-12T21:24:54.511Z,99078.95
2019-01-12T21:27:27.454Z,99078.55
2019-01-12T21:29:58.281Z,99072.08
2019-01-12T21:32:28.875Z,99075.04
2019-01-12T21:34:59.300Z,99071.84
2019-01-12T21:37:30.063Z,99064.81
2019-01-12T21:40:01.243Z,99068.30
2019-01-12T21:42:31.669Z,99062.59
2019-01-12T21:45:02.708Z,99069.58
2019-01-12T21:47:33.153Z,99063.80
2019-01-12T21:50:03.739Z,99061.69
2019-01-12T21:52:34.156Z,99054.40
2019-01-12T21:55:06.573Z,99057.13
2019-01-12T21:57:37.852Z,99058.25
2019-01-12T22:00:13.878Z,99052.30
2019-01-12T22:02:44.432Z,99049.49
2019-01-12T22:05:15.212Z,99044.30
2019-01-12T22:07:46.285Z,99057.80
2019-01-12T22:10:19.268Z,99060.30
2019-01-12T22:12:49.446Z,99057.69
2019-01-12T22:15:19.940Z,99064.86
2019-01-12T22:17:51.172Z,99058.03
2019-01-12T22:20:21.962Z,99057.56
2019-01-12T22:22:52.878Z,99061.34
2019-01-12T22:25:23.325Z,99057.02
2019-01-12T22:27:56.303Z,99050.73
2019-01-12T22:30:27.156Z,99052.50
2019-01-12T22:32:57.599Z,99051.13
2019-01-12T22:35:28.075Z,99048.52
2019-01-12T22:37:58.540Z,99043.88
2019-01-12T22:40:28.970Z,99044.39
2019-01-12T22:42:59.848Z,99041.58
2019-01-12T22:45:30.619Z,99043.61
2019-01-12T22:48:01.047Z,99045.80
2019-01-12T22:50:31.777Z,99047.31
2019-01-12T22:53:02.336Z,99046.48
2019-01-12T22:55:35.415Z,99039.01
2019-01-12T22:58:05.858Z,99040.14
2019-01-12T23:00:55.526Z,99042.05
2019-01-12T23:03:26.334Z,99038.73
2019-01-12T23:05:56.759Z,99033.27
2019-01-12T23:08:27.224Z,99036.78
2019-01-12T23:10:57.955Z,99033.15
2019-01-12T23:13:28.451Z,99039.78
2019-01-12T23:15:59.183Z,99033.84
2019-01-12T23:18:29.607Z,99035.30
2019-01-12T23:21:00.173Z,99034.48
2019-01-12T23:23:30.593Z,99046.09
2019-01-12T23:26:01.353Z,99038.14
2019-01-12T23:28:31.809Z,99036.50
2019-01-12T23:31:02.335Z,99037.44
2019-01-12T23:33:32.791Z,99035.17
2019-01-12T23:36:03.212Z,99039.19
2019-01-12T23:38:33.856Z,99047.49
2019-01-12T23:41:04.493Z,99039.47
2019-01-12T23:43:34.942Z,99041.33
2019-01-12T23:46:06.119Z,99041.48
2019-01-12T23:48:36.541Z,99039.97
2019-01-12T23:51:06.964Z,99042.08
2019-01-12T23:53:37.731Z,99034.48
2019-01-12T23:56:08.160Z,99031.03
2019-01-12T23:58:38.584Z,99024.87
